createdAt,value
2016-04-12T00:00:39.534Z,0
2016-04-12T00:01:53.678Z,0
2016-04-12T00:02:39.571Z,0
2016-04-12T00:03:39.902Z,0
2016-04-12T00:04:39.608Z,0
2016-04-12T00:05:39.610Z,0
2016-04-12T00:06:39.628Z,0
2016-04-12T00:07:39.647Z,0
2016-04-12T00:08:39.833Z,0
2016-04-12T00:09:39.679Z,0
2016-04-12T00:10:39.698Z,0
2016-04-12T00:11:39.716Z,0
2016-04-12T00:12:39.734Z,0
2016-04-12T00:13:39.753Z,0
2016-04-12T00:14:39.755Z,0
2016-04-12T00:15:39.789Z,0
2016-04-12T00:16:40.150Z,0
2016-04-12T00:17:39.825Z,0
2016-04-12T00:18:40.141Z,0
2016-04-12T00:19:39.846Z,0
2016-04-12T00:20:39.865Z,0
2016-04-12T00:21:39.882Z,0
2016-04-12T00:22:39.949Z,0
2016-04-12T00:23:39.919Z,0
2016-04-12T00:24:39.938Z,0
2016-04-12T00:25:39.987Z,0
2016-04-12T00:26:39.960Z,0
2016-04-12T00:27:39.992Z,0
2016-04-12T00:28:40.308Z,0
2016-04-12T00:29:40.030Z,0
2016-04-12T00:30:40.030Z,0
2016-04-12T00:31:40.166Z,0
2016-04-12T00:32:43.079Z,0
2016-04-12T00:33:40.082Z,0
2016-04-12T00:34:39.944Z,0
2016-04-12T00:35:40.118Z,0
2016-04-12T00:36:40.121Z,0
2016-04-12T00:37:40.156Z,0
2016-04-12T00:38:40.174Z,0
2016-04-12T00:39:40.176Z,0
2016-04-12T00:40:40.211Z,0
2016-04-12T00:41:40.509Z,0
2016-04-12T00:42:40.560Z,0
2016-04-12T00:43:40.547Z,0
2016-04-12T00:44:40.283Z,0
2016-04-12T00:45:40.271Z,0
2016-04-12T00:46:40.398Z,0
2016-04-12T00:47:40.308Z,0
2016-04-12T00:48:40.325Z,0
2016-04-12T00:49:40.361Z,0
2016-04-12T00:50:40.363Z,0
2016-04-12T00:51:40.694Z,0
2016-04-12T00:52:40.414Z,0
2016-04-12T00:53:40.433Z,0
2016-04-12T00:54:40.452Z,0
2016-04-12T00:55:40.455Z,0
2016-04-12T00:56:40.441Z,0
2016-04-12T00:57:40.474Z,0
2016-04-12T00:58:40.494Z,0
2016-04-12T00:59:40.512Z,0
2016-04-12T01:00:40.514Z,0
2016-04-12T01:01:40.549Z,0
2016-04-12T01:02:40.566Z,0
2016-04-12T01:03:40.569Z,0
2016-04-12T01:04:40.587Z,0
2016-04-12T01:05:40.918Z,0
2016-04-12T01:06:40.609Z,0
2016-04-12T01:07:40.659Z,0
2016-04-12T01:08:40.661Z,0
2016-04-12T01:09:40.679Z,0
2016-04-12T01:10:40.682Z,0
2016-04-12T01:11:40.701Z,0
2016-04-12T01:12:40.734Z,0
2016-04-12T01:13:40.736Z,0
2016-04-12T01:14:40.755Z,0
2016-04-12T01:15:40.789Z,0
2016-04-12T01:16:40.792Z,0
2016-04-12T01:17:40.060Z,0
2016-04-12T01:18:40.813Z,0
2016-04-12T01:19:40.847Z,0
2016-04-12T01:20:40.849Z,0
2016-04-12T01:21:40.852Z,0
2016-04-12T01:22:40.136Z,0
2016-04-12T01:23:40.889Z,0
2016-04-12T01:24:40.922Z,0
2016-04-12T01:25:40.925Z,0
2016-04-12T01:26:40.944Z,0
2016-04-12T01:27:40.962Z,0
2016-04-12T01:28:40.980Z,0
2016-04-12T01:29:41.014Z,0
2016-04-12T01:30:41.016Z,0
2016-04-12T01:31:41.051Z,0
2016-04-12T01:32:40.288Z,0
2016-04-12T01:33:41.056Z,0
2016-04-12T01:34:41.090Z,0
2016-04-12T01:35:41.109Z,0
2016-04-12T01:36:41.095Z,0
2016-04-12T01:37:41.129Z,0
2016-04-12T01:38:40.992Z,0
2016-04-12T01:39:41.150Z,0
2016-04-12T01:40:41.247Z,0
2016-04-12T01:41:41.234Z,0
2016-04-12T01:42:41.517Z,0
2016-04-12T01:43:41.068Z,0
2016-04-12T01:44:41.289Z,0
2016-04-12T01:45:41.276Z,0
2016-04-12T01:46:41.309Z,0
2016-04-12T01:47:41.328Z,0
2016-04-12T01:48:41.331Z,0
2016-04-12T01:49:41.349Z,0
2016-04-12T01:50:41.336Z,0
2016-04-12T01:51:41.355Z,0
2016-04-12T01:52:41.357Z,0
2016-04-12T01:54:12.750Z,0
2016-04-12T01:54:41.410Z,0
2016-04-12T01:55:41.413Z,0
2016-04-12T01:56:41.431Z,0
2016-04-12T01:57:41.449Z,0
2016-04-12T01:58:41.779Z,0
2016-04-12T01:59:41.502Z,0
2016-04-12T02:00:41.488Z,0
2016-04-12T02:01:41.522Z,0
2016-04-12T02:02:41.525Z,0
2016-04-12T02:03:41.543Z,0
2016-04-12T02:04:41.562Z,0
2016-04-12T02:05:41.579Z,0
2016-04-12T02:06:41.426Z,0
2016-04-12T02:07:41.616Z,0
2016-04-12T02:08:41.634Z,0
2016-04-12T02:09:41.637Z,0
2016-04-12T02:10:41.373Z,0
2016-04-12T02:11:40.939Z,0
2016-04-12T02:12:41.692Z,0
2016-04-12T02:13:55.804Z,0
2016-04-12T02:14:41.728Z,0
2016-04-12T02:15:41.747Z,0
2016-04-12T02:16:41.765Z,0
2016-04-12T02:17:41.784Z,0
2016-04-12T02:18:41.787Z,0
2016-04-12T02:19:41.789Z,0
2016-04-12T02:20:41.839Z,0
2016-04-12T02:21:41.826Z,0
2016-04-12T02:22:41.844Z,0
2016-04-12T02:23:41.863Z,0
2016-04-12T02:24:41.881Z,0
2016-04-12T02:25:41.899Z,0
2016-04-12T02:26:41.917Z,0
2016-04-12T02:27:41.919Z,0
2016-04-12T02:28:41.938Z,0
2016-04-12T02:29:41.957Z,0
2016-04-12T02:30:41.974Z,0
2016-04-12T02:31:42.009Z,0
2016-04-12T02:32:41.996Z,0
2016-04-12T02:33:56.108Z,0
2016-04-12T02:34:42.049Z,0
2016-04-12T02:35:42.067Z,0
2016-04-12T02:36:42.069Z,0
2016-04-12T02:37:56.494Z,0
2016-04-12T02:38:42.106Z,0
2016-04-12T02:39:42.124Z,0
2016-04-12T02:40:42.143Z,0
2016-04-12T02:41:42.192Z,0
2016-04-12T02:42:42.476Z,0
2016-04-12T02:43:42.182Z,0
2016-04-12T02:44:42.216Z,0
2016-04-12T02:45:42.203Z,0
2016-04-12T02:46:42.253Z,0
2016-04-12T02:47:42.536Z,0
2016-04-12T02:48:42.273Z,0
2016-04-12T02:49:42.589Z,0
2016-04-12T02:50:42.294Z,0
2016-04-12T02:51:42.625Z,0
2016-04-12T02:52:42.362Z,0
2016-04-12T02:53:42.443Z,0
2016-04-12T02:54:42.367Z,0
2016-04-12T02:55:42.386Z,0
2016-04-12T02:56:42.388Z,0
2016-04-12T02:57:42.407Z,0
2016-04-12T02:58:41.721Z,0
2016-04-12T02:59:42.490Z,0
2016-04-12T03:00:42.508Z,0
2016-04-12T03:01:56.558Z,0
2016-04-12T03:02:42.545Z,0
2016-04-12T03:03:42.563Z,0
2016-04-12T03:04:42.566Z,0
2016-04-12T03:05:42.568Z,0
2016-04-12T03:06:42.556Z,0
2016-04-12T03:07:42.574Z,0
2016-04-12T03:08:42.592Z,0
2016-04-12T03:09:42.611Z,0
2016-04-12T03:10:42.614Z,0
2016-04-12T03:11:42.945Z,0
2016-04-12T03:12:42.651Z,0
2016-04-12T03:13:42.668Z,0
2016-04-12T03:14:42.687Z,0
2016-04-12T03:15:42.689Z,0
2016-04-12T03:16:42.723Z,0
2016-04-12T03:17:42.726Z,0
2016-04-12T03:18:43.025Z,0
2016-04-12T03:19:42.607Z,0
2016-04-12T03:20:42.782Z,0
2016-04-12T03:21:43.097Z,0
2016-04-12T03:22:42.803Z,0
2016-04-12T03:23:42.820Z,0
2016-04-12T03:24:42.839Z,0
2016-04-12T03:25:42.842Z,0
2016-04-12T03:26:42.875Z,0
2016-04-12T03:27:42.144Z,0
2016-04-12T03:28:42.896Z,0
2016-04-12T03:29:42.915Z,0
2016-04-12T03:30:42.949Z,0
2016-04-12T03:31:42.966Z,0
2016-04-12T03:32:42.969Z,0
2016-04-12T03:33:42.988Z,0
2016-04-12T03:34:43.007Z,0
2016-04-12T03:35:43.024Z,0
2016-04-12T03:36:43.074Z,0
2016-04-12T03:37:43.062Z,0
2016-04-12T03:38:43.096Z,0
2016-04-12T03:39:43.083Z,0
2016-04-12T03:40:43.116Z,0
2016-04-12T03:41:43.135Z,0
2016-04-12T03:42:57.090Z,0
2016-04-12T03:43:46.156Z,0
2016-04-12T03:44:43.159Z,0
2016-04-12T03:45:43.208Z,0
2016-04-12T03:46:43.211Z,0
2016-04-12T03:47:43.228Z,0
2016-04-12T03:48:43.231Z,0
2016-04-12T03:49:43.250Z,0
2016-04-12T03:50:43.283Z,0
2016-04-12T03:51:43.286Z,0
2016-04-12T03:52:43.305Z,0
2016-04-12T03:53:43.308Z,0
2016-04-12T03:54:43.670Z,0
2016-04-12T03:55:43.344Z,0
2016-04-12T03:56:43.394Z,0
2016-04-12T03:57:43.396Z,0
2016-04-12T03:58:43.400Z,0
2016-04-12T03:59:43.417Z,0
2016-04-12T04:00:42.686Z,0
2016-04-12T04:01:43.469Z,0
2016-04-12T04:02:43.472Z,0
2016-04-12T04:03:43.475Z,0
2016-04-12T04:04:44.181Z,0
2016-04-12T04:05:43.512Z,0
2016-04-12T04:06:43.529Z,0
2016-04-12T04:07:42.798Z,0
2016-04-12T04:08:43.567Z,0
2016-04-12T04:09:43.585Z,0
2016-04-12T04:10:43.619Z,0
2016-04-12T04:11:43.606Z,0
2016-04-12T04:12:43.640Z,0
2016-04-12T04:13:42.893Z,0
2016-04-12T04:14:43.676Z,0
2016-04-12T04:15:43.695Z,0
2016-04-12T04:16:43.978Z,0
2016-04-12T04:17:43.701Z,0
2016-04-12T04:18:43.734Z,0
2016-04-12T04:19:43.768Z,0
2016-04-12T04:20:43.755Z,0
2016-04-12T04:21:43.773Z,0
2016-04-12T04:22:44.089Z,0
2016-04-12T04:23:43.841Z,0
2016-04-12T04:24:43.844Z,0
2016-04-12T04:25:43.831Z,0
2016-04-12T04:26:43.850Z,0
2016-04-12T04:27:43.867Z,0
2016-04-12T04:28:43.886Z,0
2016-04-12T04:29:43.905Z,0
2016-04-12T04:30:43.922Z,0
2016-04-12T04:31:43.925Z,0
2016-04-12T04:32:44.038Z,0
2016-04-12T04:33:43.977Z,0
2016-04-12T04:34:43.840Z,0
2016-04-12T04:35:44.013Z,5
2016-04-12T04:36:44.002Z,5
2016-04-12T04:37:44.035Z,5
2016-04-12T04:38:44.069Z,5
2016-04-12T04:39:44.057Z,5
2016-04-12T04:40:44.074Z,5
2016-04-12T04:41:44.109Z,5
2016-04-12T04:42:44.112Z,5
2016-04-12T04:43:44.114Z,5
2016-04-12T04:44:44.148Z,5
2016-04-12T04:45:44.166Z,5
2016-04-12T04:46:44.184Z,5
2016-04-12T04:47:43.625Z,5
2016-04-12T04:48:44.065Z,5
2016-04-12T04:49:44.537Z,10
2016-04-12T04:50:44.242Z,10
2016-04-12T04:51:44.276Z,10
2016-04-12T04:52:44.278Z,10
2016-04-12T04:53:44.282Z,10
2016-04-12T04:54:44.300Z,10
2016-04-12T04:55:44.318Z,10
2016-04-12T04:56:44.352Z,10
2016-04-12T04:57:44.369Z,10
2016-04-12T04:58:44.373Z,10
2016-04-12T04:59:44.407Z,10
2016-04-12T05:00:44.394Z,10
2016-04-12T05:01:44.413Z,10
2016-04-12T05:02:43.774Z,15
2016-04-12T05:03:44.433Z,15
2016-04-12T05:04:44.467Z,15
2016-04-12T05:05:44.486Z,15
2016-04-12T05:06:44.519Z,15
2016-04-12T05:07:44.522Z,15
2016-04-12T05:08:44.791Z,10
2016-04-12T05:09:44.560Z,10
2016-04-12T05:10:44.571Z,10
2016-04-12T05:11:44.573Z,10
2016-04-12T05:12:44.609Z,10
2016-04-12T05:13:44.626Z,10
2016-04-12T05:14:44.628Z,10
2016-04-12T05:15:44.648Z,10
2016-04-12T05:16:44.681Z,10
2016-04-12T05:17:44.950Z,15
2016-04-12T05:18:44.702Z,15
2016-04-12T05:19:44.752Z,15
2016-04-12T05:20:44.786Z,20
2016-04-12T05:21:44.788Z,20
2016-04-12T05:22:44.791Z,20
2016-04-12T05:23:44.794Z,25
2016-04-12T05:24:44.797Z,25
2016-04-12T05:25:44.831Z,25
2016-04-12T05:26:44.817Z,25
2016-04-12T05:27:44.867Z,30
2016-04-12T05:28:44.713Z,30
2016-04-12T05:29:44.872Z,35
2016-04-12T05:30:44.907Z,35
2016-04-12T05:31:44.924Z,35
2016-04-12T05:32:44.943Z,35
2016-04-12T05:33:44.960Z,35
2016-04-12T05:34:44.964Z,35
2016-04-12T05:35:44.982Z,35
2016-04-12T05:36:45.015Z,35
2016-04-12T05:37:44.269Z,35
2016-04-12T05:38:45.037Z,35
2016-04-12T05:39:44.931Z,35
2016-04-12T05:40:45.074Z,35
2016-04-12T05:41:45.092Z,40
2016-04-12T05:42:45.110Z,40
2016-04-12T05:43:45.128Z,40
2016-04-12T05:44:45.132Z,40
2016-04-12T05:45:45.009Z,40
2016-04-12T05:46:45.168Z,45
2016-04-12T05:47:45.217Z,45
2016-04-12T05:48:45.205Z,45
2016-04-12T05:49:45.223Z,50
2016-04-12T05:50:45.241Z,50
2016-04-12T05:51:45.259Z,50
2016-04-12T05:52:45.294Z,55
2016-04-12T05:53:45.281Z,55
2016-04-12T05:54:45.314Z,60
2016-04-12T05:55:45.333Z,60
2016-04-12T05:56:45.336Z,60
2016-04-12T05:57:45.369Z,65
2016-04-12T05:58:45.388Z,70
2016-04-12T05:59:45.391Z,70
2016-04-12T06:00:45.408Z,70
2016-04-12T06:01:45.443Z,70
2016-04-12T06:02:45.461Z,80
2016-04-12T06:03:45.464Z,70
2016-04-12T06:04:45.482Z,70
2016-04-12T06:05:45.500Z,70
2016-04-12T06:06:45.347Z,65
2016-04-12T06:07:45.537Z,65
2016-04-12T06:08:45.540Z,75
2016-04-12T06:09:45.574Z,75
2016-04-12T06:10:45.592Z,70
2016-04-12T06:11:45.626Z,75
2016-04-12T06:13:45.631Z,65
2016-04-12T06:14:45.665Z,65
2016-04-12T06:15:45.668Z,65
2016-04-12T06:16:45.670Z,65
2016-04-12T06:17:45.704Z,70
2016-04-12T06:18:45.707Z,75
2016-04-12T06:19:45.756Z,100
2016-04-12T06:20:45.759Z,100
2016-04-12T06:21:45.778Z,85
2016-04-12T06:22:45.828Z,110
2016-04-12T06:23:45.689Z,90
2016-04-12T06:24:45.880Z,90
2016-04-12T06:25:45.898Z,85
2016-04-12T06:26:45.713Z,85
2016-04-12T06:27:45.871Z,90
2016-04-12T06:28:45.906Z,90
2016-04-12T06:29:45.924Z,90
2016-04-12T06:30:45.943Z,95
2016-04-12T06:31:45.992Z,95
2016-04-12T06:32:45.979Z,100
2016-04-12T06:33:45.997Z,105
2016-04-12T06:34:46.016Z,135
2016-04-12T06:35:46.019Z,160
2016-04-12T06:36:46.052Z,160
2016-04-12T06:37:46.071Z,170
2016-04-12T06:38:46.090Z,165
2016-04-12T06:39:46.093Z,140
2016-04-12T06:40:46.126Z,170
2016-04-12T06:41:45.972Z,140
2016-04-12T06:42:46.162Z,150
2016-04-12T06:43:46.165Z,135
2016-04-12T06:44:46.199Z,145
2016-04-12T06:45:46.217Z,135
2016-04-12T06:46:46.298Z,135
2016-04-12T06:47:46.254Z,155
2016-04-12T06:48:46.272Z,175
2016-04-12T06:49:46.290Z,170
2016-04-12T06:50:46.309Z,170
2016-04-12T06:51:46.328Z,160
2016-04-12T06:52:46.345Z,130
2016-04-12T06:53:46.380Z,125
2016-04-12T06:54:46.414Z,125
2016-04-12T06:55:46.386Z,120
2016-04-12T06:56:46.434Z,115
2016-04-12T06:57:46.437Z,110
2016-04-12T06:58:46.455Z,110
2016-04-12T06:59:46.489Z,105
2016-04-12T07:00:46.491Z,105
2016-04-12T07:01:46.526Z,110
2016-04-12T07:02:46.575Z,110
2016-04-12T07:03:46.688Z,110
2016-04-12T07:04:46.580Z,110
2016-04-12T07:05:46.599Z,115
2016-04-12T07:06:46.618Z,115
2016-04-12T07:07:46.682Z,115
2016-04-12T07:08:46.654Z,115
2016-04-12T07:09:46.688Z,115
2016-04-12T07:10:46.706Z,115
2016-04-12T07:11:46.724Z,115
2016-04-12T07:12:46.743Z,115
2016-04-12T07:13:46.762Z,115
2016-04-12T07:14:46.764Z,110
2016-04-12T07:15:46.798Z,110
2016-04-12T07:16:46.817Z,110
2016-04-12T07:17:46.850Z,110
2016-04-12T07:18:46.837Z,110
2016-04-12T07:19:46.887Z,110
2016-04-12T07:20:46.749Z,110
2016-04-12T07:21:47.064Z,110
2016-04-12T07:22:46.926Z,115
2016-04-12T07:23:46.194Z,120
2016-04-12T07:24:46.963Z,120
2016-04-12T07:25:46.981Z,125
2016-04-12T07:26:47.000Z,125
2016-04-12T07:27:47.002Z,130
2016-04-12T07:28:47.052Z,130
2016-04-12T07:29:47.055Z,135
2016-04-12T07:30:47.072Z,135
2016-04-12T07:31:47.091Z,135
2016-04-12T07:32:47.125Z,135
2016-04-12T07:33:47.144Z,135
2016-04-12T07:34:47.161Z,130
2016-04-12T07:35:47.179Z,130
2016-04-12T07:36:47.199Z,145
2016-04-12T07:37:47.216Z,130
2016-04-12T07:38:47.266Z,135
2016-04-12T07:39:47.254Z,135
2016-04-12T07:40:47.302Z,135
2016-04-12T07:41:47.355Z,140
2016-04-12T07:42:47.391Z,140
2016-04-12T07:43:47.426Z,145
2016-04-12T07:44:46.757Z,155
2016-04-12T07:45:47.591Z,160
2016-04-12T07:46:47.639Z,160
2016-04-12T07:47:47.659Z,160
2016-04-12T07:48:47.693Z,160
2016-04-12T07:49:47.745Z,160
2016-04-12T07:50:47.781Z,160
2016-04-12T07:51:47.816Z,160
2016-04-12T07:52:47.840Z,160
2016-04-12T07:53:47.864Z,165
2016-04-12T07:54:47.904Z,165
2016-04-12T07:55:47.929Z,160
2016-04-12T07:56:47.938Z,160
2016-04-12T07:57:47.208Z,165
2016-04-12T07:58:47.995Z,165
2016-04-12T07:59:48.015Z,165
2016-04-12T08:00:48.051Z,165
2016-04-12T08:01:48.071Z,165
2016-04-12T08:02:47.919Z,165
2016-04-12T08:03:48.095Z,165
2016-04-12T08:04:48.129Z,165
2016-04-12T08:05:48.163Z,160
2016-04-12T08:06:48.167Z,160
2016-04-12T08:07:48.202Z,160
2016-04-12T08:08:48.225Z,160
2016-04-12T08:09:48.227Z,165
2016-04-12T08:10:48.247Z,165
2016-04-12T08:11:48.297Z,165
2016-04-12T08:12:48.299Z,165
2016-04-12T08:13:48.306Z,170
2016-04-12T08:14:48.341Z,175
2016-04-12T08:15:48.344Z,175
2016-04-12T08:16:48.378Z,190
2016-04-12T08:17:48.396Z,175
2016-04-12T08:18:48.429Z,180
2016-04-12T08:19:48.433Z,185
2016-04-12T08:20:48.466Z,180
2016-04-12T08:21:48.485Z,220
2016-04-12T08:22:48.502Z,230
2016-04-12T08:23:48.522Z,230
2016-04-12T08:24:48.430Z,220
2016-04-12T08:25:49.245Z,200
2016-04-12T08:26:48.591Z,195
2016-04-12T08:27:48.610Z,180
2016-04-12T08:28:48.629Z,170
2016-04-12T08:29:48.647Z,165
2016-04-12T08:30:48.696Z,165
2016-04-12T08:31:48.684Z,165
2016-04-12T08:32:48.732Z,160
2016-04-12T08:33:48.720Z,165
2016-04-12T08:34:48.770Z,160
2016-04-12T08:35:48.757Z,155
2016-04-12T08:36:48.790Z,160
2016-04-12T08:37:48.825Z,165
2016-04-12T08:38:48.078Z,160
2016-04-12T08:39:48.846Z,160
2016-04-12T08:40:48.864Z,165
2016-04-12T08:41:48.773Z,185
2016-04-12T08:42:48.979Z,195
2016-04-12T08:43:48.794Z,205
2016-04-12T08:44:48.797Z,220
2016-04-12T08:45:48.972Z,215
2016-04-12T08:46:49.005Z,215
2016-04-12T08:47:49.039Z,220
2016-04-12T08:48:49.058Z,210
2016-04-12T08:49:49.060Z,185
2016-04-12T08:50:49.094Z,165
2016-04-12T08:51:49.113Z,170
2016-04-12T08:52:49.146Z,165
2016-04-12T08:53:49.180Z,170
2016-04-12T08:54:49.167Z,170
2016-04-12T08:55:49.202Z,170
2016-04-12T08:56:49.219Z,170
2016-04-12T08:57:49.254Z,170
2016-04-12T08:58:53.694Z,180
2016-04-12T09:00:41.009Z,165
2016-04-12T09:01:17.324Z,165
2016-04-12T09:02:39.249Z,170
2016-04-12T09:05:44.853Z,185
2016-04-12T09:07:03.449Z,195
2016-04-12T09:07:51.171Z,190
2016-04-12T09:09:34.037Z,195
2016-04-12T09:10:21.212Z,205
2016-04-12T09:11:47.031Z,225
2016-04-12T09:12:55.970Z,215
2016-04-12T09:13:46.911Z,210
2016-04-12T09:14:46.928Z,215
2016-04-12T09:15:46.947Z,220
2016-04-12T09:16:46.966Z,215
2016-04-12T09:17:46.984Z,240
2016-04-12T09:18:49.893Z,245
2016-04-12T09:19:47.036Z,235
2016-04-12T09:20:47.054Z,250
2016-04-12T09:21:47.072Z,250
2016-04-12T09:22:47.138Z,240
2016-04-12T09:23:47.125Z,240
2016-04-12T09:24:47.159Z,230
2016-04-12T09:25:47.162Z,220
2016-04-12T09:26:47.180Z,225
2016-04-12T09:27:47.213Z,220
2016-04-12T09:28:47.216Z,220
2016-04-12T09:29:47.251Z,215
2016-04-12T09:30:47.269Z,220
2016-04-12T09:31:47.287Z,230
2016-04-12T09:32:47.306Z,225
2016-04-12T09:33:47.262Z,245
2016-04-12T09:34:47.358Z,245
2016-04-12T09:35:47.376Z,250
2016-04-12T09:36:47.410Z,250
2016-04-12T09:37:47.412Z,260
2016-04-12T09:38:47.447Z,265
2016-04-12T09:39:47.450Z,265
2016-04-12T09:40:47.484Z,270
2016-04-12T09:41:47.501Z,280
2016-04-12T09:42:47.520Z,275
2016-04-12T09:43:47.538Z,285
2016-04-12T09:44:47.619Z,295
2016-04-12T09:45:47.591Z,295
2016-04-12T09:46:47.625Z,295
2016-04-12T09:47:47.939Z,290
2016-04-12T09:48:47.489Z,295
2016-04-12T09:49:47.695Z,270
2016-04-12T09:50:47.697Z,270
2016-04-12T09:51:47.715Z,280
2016-04-12T09:52:47.749Z,235
2016-04-12T09:53:47.769Z,260
2016-04-12T09:54:47.802Z,220
2016-04-12T09:55:47.821Z,215
2016-04-12T09:56:47.854Z,225
2016-04-12T09:57:47.873Z,210
2016-04-12T09:58:47.907Z,225
2016-04-12T09:59:47.925Z,255
2016-04-12T10:00:47.913Z,235
2016-04-12T10:01:47.962Z,255
2016-04-12T10:02:48.026Z,255
2016-04-12T10:03:48.060Z,265
2016-04-12T10:04:48.032Z,255
2016-04-12T10:05:48.034Z,250
2016-04-12T10:06:48.038Z,225
2016-04-12T10:07:48.087Z,210
2016-04-12T10:08:48.121Z,240
2016-04-12T10:09:48.123Z,235
2016-04-12T10:10:48.142Z,225
2016-04-12T10:11:48.161Z,205
2016-04-12T10:12:48.178Z,200
2016-04-12T10:13:48.228Z,200
2016-04-12T10:14:48.214Z,195
2016-04-12T10:15:48.250Z,195
2016-04-12T10:16:48.127Z,200
2016-04-12T10:17:48.302Z,200
2016-04-12T10:19:02.319Z,205
2016-04-12T10:19:48.338Z,210
2016-04-12T10:20:48.372Z,220
2016-04-12T10:21:48.578Z,215
2016-04-12T10:22:48.409Z,215
2016-04-12T10:23:48.427Z,220
2016-04-12T10:24:48.445Z,220
2016-04-12T10:25:48.479Z,220
2016-04-12T10:26:48.779Z,225
2016-04-12T10:27:48.516Z,230
2016-04-12T10:28:48.549Z,235
2016-04-12T10:29:48.568Z,240
2016-04-12T10:30:48.587Z,245
2016-04-12T10:31:48.604Z,245
2016-04-12T10:32:47.888Z,255
2016-04-12T10:33:48.735Z,250
2016-04-12T10:34:48.675Z,250
2016-04-12T10:35:48.585Z,255
2016-04-12T10:36:48.993Z,255
2016-04-12T10:37:49.496Z,260
2016-04-12T10:38:48.748Z,255
2016-04-12T10:39:48.814Z,255
2016-04-12T10:40:48.831Z,255
2016-04-12T10:41:48.834Z,255
2016-04-12T10:42:48.854Z,255
2016-04-12T10:43:48.872Z,255
2016-04-12T10:44:48.890Z,250
2016-04-12T10:45:48.939Z,250
2016-04-12T10:46:48.958Z,250
2016-04-12T10:47:48.945Z,250
2016-04-12T10:48:49.042Z,250
2016-04-12T10:49:48.997Z,250
2016-04-12T10:50:49.046Z,250
2016-04-12T10:51:49.065Z,255
2016-04-12T10:52:49.067Z,255
2016-04-12T10:53:49.117Z,250
2016-04-12T10:54:49.152Z,255
2016-04-12T10:55:49.169Z,255
2016-04-12T10:56:49.203Z,255
2016-04-12T10:57:49.190Z,260
2016-04-12T10:58:49.224Z,255
2016-04-12T10:59:49.243Z,255
2016-04-12T11:00:49.292Z,250
2016-04-12T11:01:49.279Z,250
2016-04-12T11:02:49.313Z,250
2016-04-12T11:03:49.378Z,245
2016-04-12T11:04:49.349Z,245
2016-04-12T11:05:49.384Z,240
2016-04-12T11:06:49.401Z,240
2016-04-12T11:07:49.420Z,240
2016-04-12T11:08:49.455Z,235
2016-04-12T11:09:48.723Z,235
2016-04-12T11:10:49.490Z,230
2016-04-12T11:11:49.556Z,225
2016-04-12T11:12:49.574Z,225
2016-04-12T11:13:49.609Z,225
2016-04-12T11:14:48.861Z,220
2016-04-12T11:15:49.598Z,215
2016-04-12T11:16:49.631Z,215
2016-04-12T11:17:49.650Z,210
2016-04-12T11:18:49.762Z,210
2016-04-12T11:19:49.686Z,205
2016-04-12T11:20:49.721Z,205
2016-04-12T11:21:49.739Z,205
2016-04-12T11:22:49.773Z,205
2016-04-12T11:23:49.776Z,205
2016-04-12T11:24:49.825Z,205
2016-04-12T11:25:50.110Z,205
2016-04-12T11:26:49.846Z,210
2016-04-12T11:27:49.880Z,210
2016-04-12T11:28:49.899Z,210
2016-04-12T11:29:49.933Z,215
2016-04-12T11:30:49.795Z,215
2016-04-12T11:31:49.984Z,215
2016-04-12T11:32:50.004Z,220
2016-04-12T11:33:50.038Z,215
2016-04-12T11:34:50.040Z,215
2016-04-12T11:35:50.058Z,220
2016-04-12T11:36:50.092Z,225
2016-04-12T11:37:50.095Z,225
2016-04-12T11:38:50.144Z,230
2016-04-12T11:39:50.147Z,235
2016-04-12T11:40:50.181Z,235
2016-04-12T11:41:50.198Z,245
2016-04-12T11:42:50.217Z,245
2016-04-12T11:43:50.237Z,245
2016-04-12T11:44:50.286Z,250
2016-04-12T11:45:50.272Z,255
2016-04-12T11:46:50.337Z,260
2016-04-12T11:47:50.340Z,265
2016-04-12T11:48:50.359Z,270
2016-04-12T11:49:50.377Z,275
2016-04-12T11:50:52.848Z,275
2016-04-12T11:51:50.444Z,275
2016-04-12T11:52:50.447Z,270
2016-04-12T11:53:50.466Z,270
2016-04-12T11:55:04.578Z,270
2016-04-12T11:55:50.565Z,270
2016-04-12T11:56:50.583Z,270
2016-04-12T11:57:50.571Z,270
2016-04-12T11:58:50.589Z,270
2016-04-12T11:59:50.608Z,270
2016-04-12T12:00:50.625Z,270
2016-04-12T12:01:50.660Z,270
2016-04-12T12:02:50.693Z,270
2016-04-12T12:03:50.712Z,270
2016-04-12T12:04:50.715Z,270
2016-04-12T12:05:50.748Z,270
2016-04-12T12:06:50.766Z,270
2016-04-12T12:07:50.801Z,270
2016-04-12T12:08:50.834Z,270
2016-04-12T12:09:50.837Z,275
2016-04-12T12:10:50.886Z,275
2016-04-12T12:11:50.889Z,280
2016-04-12T12:12:50.908Z,280
2016-04-12T12:13:50.942Z,275
2016-04-12T12:14:50.975Z,280
2016-04-12T12:15:50.978Z,275
2016-04-12T12:16:50.981Z,275
2016-04-12T12:17:51.031Z,275
2016-04-12T12:18:51.049Z,275
2016-04-12T12:19:51.067Z,270
2016-04-12T12:20:51.101Z,270
2016-04-12T12:21:51.120Z,270
2016-04-12T12:22:51.138Z,270
2016-04-12T12:23:51.156Z,265
2016-04-12T12:24:51.031Z,265
2016-04-12T12:25:50.456Z,270
2016-04-12T12:26:51.083Z,265
2016-04-12T12:27:51.242Z,270
2016-04-12T12:28:51.308Z,270
2016-04-12T12:29:51.310Z,265
2016-04-12T12:30:51.328Z,265
2016-04-12T12:31:51.347Z,270
2016-04-12T12:32:51.380Z,265
2016-04-12T12:33:51.399Z,265
2016-04-12T12:34:51.433Z,270
2016-04-12T12:35:51.451Z,260
2016-04-12T12:36:51.173Z,255
2016-04-12T12:37:51.472Z,250
2016-04-12T12:38:51.507Z,245
2016-04-12T12:39:51.587Z,245
2016-04-12T12:40:51.574Z,240
2016-04-12T12:41:51.436Z,240
2016-04-12T12:42:51.642Z,240
2016-04-12T12:43:51.645Z,240
2016-04-12T12:44:51.648Z,240
2016-04-12T12:45:51.713Z,245
2016-04-12T12:46:51.715Z,240
2016-04-12T12:47:51.733Z,240
2016-04-12T12:48:51.767Z,235
2016-04-12T12:49:52.083Z,235
2016-04-12T12:50:51.866Z,235
2016-04-12T12:51:51.667Z,245
2016-04-12T12:52:51.872Z,285
2016-04-12T12:53:51.889Z,270
2016-04-12T12:54:51.924Z,320
2016-04-12T12:55:51.942Z,280
2016-04-12T12:56:51.945Z,265
2016-04-12T12:57:51.994Z,300
2016-04-12T12:58:51.997Z,305
2016-04-12T12:59:52.031Z,275
2016-04-12T13:00:52.065Z,270
2016-04-12T13:01:52.068Z,270
2016-04-12T13:02:52.149Z,270
2016-04-12T13:03:52.104Z,280
2016-04-12T13:04:52.154Z,295
2016-04-12T13:05:52.188Z,320
2016-04-12T13:06:51.424Z,310
2016-04-12T13:07:52.224Z,255
2016-04-12T13:08:52.324Z,245
2016-04-12T13:09:52.295Z,240
2016-04-12T13:10:52.283Z,245
2016-04-12T13:11:52.332Z,230
2016-04-12T13:12:52.351Z,230
2016-04-12T13:13:52.400Z,225
2016-04-12T13:14:52.387Z,265
2016-04-12T13:15:52.421Z,265
2016-04-12T13:16:52.454Z,270
2016-04-12T13:17:52.490Z,275
2016-04-12T13:18:52.476Z,270
2016-04-12T13:19:52.510Z,220
2016-04-12T13:20:52.529Z,215
2016-04-12T13:21:52.579Z,210
2016-04-12T13:22:52.581Z,210
2016-04-12T13:23:52.645Z,210
2016-04-12T13:24:52.462Z,210
2016-04-12T13:25:52.667Z,205
2016-04-12T13:26:51.935Z,205
2016-04-12T13:27:52.750Z,205
2016-04-12T13:28:52.737Z,210
2016-04-12T13:29:52.771Z,215
2016-04-12T13:30:52.790Z,215
2016-04-12T13:31:52.652Z,220
2016-04-12T13:32:52.842Z,225
2016-04-12T13:33:52.688Z,230
2016-04-12T13:34:52.878Z,230
2016-04-12T13:35:52.740Z,235
2016-04-12T13:36:52.931Z,235
2016-04-12T13:37:52.949Z,235
2016-04-12T13:38:53.264Z,240
2016-04-12T13:39:53.001Z,255
2016-04-12T13:40:53.019Z,245
2016-04-12T13:41:53.069Z,245
2016-04-12T13:42:53.102Z,250
2016-04-12T13:43:55.136Z,250
2016-04-12T13:44:53.825Z,250
2016-04-12T13:45:52.953Z,250
2016-04-12T13:46:54.076Z,260
2016-04-12T13:47:53.203Z,250
2016-04-12T13:48:53.221Z,255
2016-04-12T13:49:53.225Z,255
2016-04-12T13:50:53.258Z,290
2016-04-12T13:51:53.589Z,255
2016-04-12T13:52:53.311Z,265
2016-04-12T13:53:53.360Z,295
2016-04-12T13:54:53.363Z,265
2016-04-12T13:55:53.366Z,310
2016-04-12T13:56:53.431Z,320
2016-04-12T13:57:53.418Z,305
2016-04-12T13:58:53.467Z,290
2016-04-12T13:59:53.470Z,275
2016-04-12T14:00:53.520Z,270
2016-04-12T14:01:53.804Z,255
2016-04-12T14:02:53.556Z,240
2016-04-12T14:03:53.575Z,240
2016-04-12T14:04:53.609Z,245
2016-04-12T14:05:53.627Z,235
2016-04-12T14:06:53.646Z,235
2016-04-12T14:07:53.663Z,225
2016-04-12T14:08:53.713Z,220
2016-04-12T14:09:53.731Z,210
2016-04-12T14:10:53.750Z,200
2016-04-12T14:11:53.768Z,195
2016-04-12T14:12:53.803Z,195
2016-04-12T14:13:53.805Z,195
2016-04-12T14:14:53.886Z,195